Time;durP1;ratioP1;P1;durP2;ratioP2;P2;SDS_P1;SDS_P2;PMS_P1;PMS_P2;Temp;Humidity;BMP_temperature;BMP_pressure;BME280_temperature;BME280_humidity;BME280_pressure;Samples;Min_cycle;Max_cycle;Signal;HPM_P1;HPM_P2
2023/10/23 00:01:15;;;;;;;1.20;1.20;;;;;;;14.92;91.08;97031.16;5004053;28;20088;-62
2023/10/23 00:03:42;;;;;;;1.33;1.33;;;;;;;14.70;92.01;97007.25;5005299;28;20046;-62
2023/10/23 00:06:09;;;;;;;1.30;1.30;;;;;;;14.77;92.97;97022.00;5005385;28;20145;-62
2023/10/23 00:08:36;;;;;;;1.23;1.23;;;;;;;14.66;93.77;97012.03;5005344;28;20053;-62
2023/10/23 00:11:03;;;;;;;1.13;1.13;;;;;;;14.76;93.77;97012.00;5005226;28;20050;-63
2023/10/23 00:13:29;;;;;;;1.30;1.30;;;;;;;14.84;93.53;97002.44;5005184;28;20080;-62
2023/10/23 00:15:56;;;;;;;1.17;1.17;;;;;;;14.85;93.69;97003.25;5003554;28;20064;-63
2023/10/23 00:18:23;;;;;;;1.20;1.20;;;;;;;14.63;94.74;96984.94;5005071;28;20056;-62
2023/10/23 00:20:49;;;;;;;1.20;1.20;;;;;;;14.57;96.02;97008.84;5004613;28;20050;-62
2023/10/23 00:23:16;;;;;;;1.10;1.10;;;;;;;14.09;98.75;97004.72;5004594;28;20069;-62
2023/10/23 00:25:43;;;;;;;1.30;1.30;;;;;;;14.26;98.34;97009.56;5004742;28;20057;-63
2023/10/23 00:28:10;;;;;;;1.30;1.30;;;;;;;14.38;97.95;97003.63;5004699;28;20534;-63
2023/10/23 00:30:36;;;;;;;1.20;1.20;;;;;;;14.44;97.48;97007.63;5004599;28;20196;-62
2023/10/23 00:33:03;;;;;;;1.30;1.30;;;;;;;14.52;96.87;97012.00;5005258;28;20054;-62
2023/10/23 00:35:31;;;;;;;1.20;1.20;;;;;;;14.56;95.92;97015.59;5003998;28;20090;-62
2023/10/23 00:37:58;;;;;;;1.30;1.30;;;;;;;14.60;95.48;97013.63;5005022;28;20128;-62
2023/10/23 00:40:24;;;;;;;1.20;1.20;;;;;;;14.50;95.65;97015.19;5003033;28;20053;-62
2023/10/23 00:42:51;;;;;;;1.15;1.15;;;;;;;14.50;95.92;97020.78;5003590;28;20049;-62
2023/10/23 00:45:19;;;;;;;1.25;1.25;;;;;;;14.54;94.87;97020.78;5004689;28;20063;-63
2023/10/23 00:47:46;;;;;;;1.10;1.10;;;;;;;14.03;94.22;96933.91;5004673;28;20535;-62
2023/10/23 00:50:13;;;;;;;1.17;1.17;;;;;;;14.47;93.75;96990.09;5004355;28;20451;-62
2023/10/23 00:52:41;;;;;;;1.30;1.30;;;;;;;14.63;94.47;97029.53;5004852;28;20042;-62
2023/10/23 00:55:08;;;;;;;1.30;1.30;;;;;;;14.68;94.31;97020.78;5004618;28;20058;-62
2023/10/23 00:57:35;;;;;;;1.10;1.10;;;;;;;14.78;94.83;97019.97;5004461;28;20046;-62
2023/10/23 01:00:04;;;;;;;1.30;1.30;;;;;;;14.75;95.89;97023.56;5004456;28;20517;-62
2023/10/23 01:02:31;;;;;;;1.10;1.10;;;;;;;14.48;95.79;96994.50;5004472;28;20060;-62
2023/10/23 01:04:59;;;;;;;1.10;1.10;;;;;;;14.78;95.54;97031.13;5004535;28;20112;-62
2023/10/23 01:07:26;;;;;;;1.20;1.20;;;;;;;14.84;94.84;97035.16;5004484;28;20053;-62
2023/10/23 01:09:53;;;;;;;1.20;1.20;;;;;;;14.76;95.53;97033.53;5004243;28;20080;-62
2023/10/23 01:12:19;;;;;;;1.30;1.30;;;;;;;14.74;95.62;97033.94;5004566;28;20058;-62
2023/10/23 01:14:46;;;;;;;1.20;1.20;;;;;;;14.55;94.99;97008.44;5004437;28;20056;-62
2023/10/23 01:17:13;;;;;;;1.30;1.30;;;;;;;14.59;95.27;97034.34;5002599;28;20058;-62
2023/10/23 01:19:39;;;;;;;1.25;1.25;;;;;;;14.54;95.66;97031.94;5004281;28;20137;-62
2023/10/23 01:22:06;;;;;;;1.10;1.10;;;;;;;14.45;95.96;97034.28;5004228;28;20053;-62
2023/10/23 01:24:38;;;;;;;1.20;1.20;;;;;;;14.52;95.78;97029.53;5003997;28;20060;-62
2023/10/23 01:27:05;;;;;;;1.25;1.25;;;;;;;14.52;95.53;97042.69;5004559;28;20093;-62
2023/10/23 01:29:32;;;;;;;1.17;1.17;;;;;;;14.49;95.32;97040.69;5002795;28;20137;-61
2023/10/23 01:31:58;;;;;;;1.15;1.15;;;;;;;14.44;94.88;97032.69;5004370;28;20058;-62
2023/10/23 01:34:25;;;;;;;1.17;1.17;;;;;;;14.54;94.78;97040.28;5004093;28;20049;-62
2023/10/23 01:36:52;;;;;;;1.27;1.27;;;;;;;14.59;95.71;97039.91;5004207;28;20057;-62
2023/10/23 01:39:18;;;;;;;1.20;1.20;;;;;;;14.63;95.88;97038.72;5004211;28;20133;-62
2023/10/23 01:41:45;;;;;;;1.20;1.20;;;;;;;14.61;95.44;97037.50;5004318;28;20085;-62
2023/10/23 01:44:12;;;;;;;1.02;1.02;;;;;;;14.67;94.64;97041.47;5003860;28;20054;-62
2023/10/23 01:46:39;;;;;;;1.10;1.10;;;;;;;14.58;95.48;97041.09;5003643;28;20057;-62
2023/10/23 01:49:06;;;;;;;1.00;1.00;;;;;;;14.09;96.03;97046.50;5007166;28;20452;-62
2023/10/23 01:51:32;;;;;;;1.08;1.08;;;;;;;13.82;97.72;97039.63;5006504;28;20152;-62
2023/10/23 01:53:59;;;;;;;1.20;1.20;;;;;;;14.00;96.61;97046.09;5006112;28;20595;-62
2023/10/23 01:56:26;;;;;;;1.10;1.10;;;;;;;14.09;98.27;97043.72;5006263;28;20077;-62
2023/10/23 01:58:52;;;;;;;1.20;1.20;;;;;;;14.06;95.60;97044.50;5007492;28;20128;-62
2023/10/23 02:01:23;;;;;;;1.10;1.10;;;;;;;13.62;95.03;97014.88;5007806;28;20432;-62
2023/10/23 02:03:50;;;;;;;1.20;1.20;;;;;;;13.95;97.21;97049.25;5007602;28;20171;-62
2023/10/23 02:06:17;;;;;;;1.13;1.13;;;;;;;14.04;97.76;97046.88;5007727;28;20057;-62
2023/10/23 02:08:44;;;;;;;1.00;1.00;;;;;;;13.96;99.05;97056.44;5006100;28;20058;-62
2023/10/23 02:11:11;;;;;;;1.10;1.10;;;;;;;14.11;98.69;97041.34;5005687;28;20061;-62
2023/10/23 02:13:38;;;;;;;1.10;1.10;;;;;;;13.84;97.74;97031.69;5007352;28;20065;-62
2023/10/23 02:16:05;;;;;;;1.13;1.13;;;;;;;13.47;98.09;96968.72;5005759;28;20512;-62
2023/10/23 02:18:32;;;;;;;1.00;1.00;;;;;;;13.61;97.43;96999.41;5007708;28;20049;-62
2023/10/23 02:21:00;;;;;;;1.08;1.08;;;;;;;14.01;96.19;97047.66;5007602;28;20431;-62
2023/10/23 02:23:26;;;;;;;1.15;1.15;;;;;;;14.04;95.05;97042.13;5007390;28;20527;-62
2023/10/23 02:25:59;;;;;;;0.95;0.95;;;;;;;14.10;94.23;97050.91;5007324;28;20528;-62
2023/10/23 02:28:27;;;;;;;1.20;1.20;;;;;;;14.02;95.52;97046.50;5007761;28;20177;-62
2023/10/23 02:30:54;;;;;;;1.15;1.15;;;;;;;13.95;96.15;97049.25;5005960;28;20050;-62
2023/10/23 02:33:21;;;;;;;1.20;1.20;;;;;;;13.90;95.87;97060.75;5007525;28;20054;-61
2023/10/23 02:35:48;;;;;;;1.10;1.10;;;;;;;13.96;95.35;97056.44;5006759;28;20077;-62
2023/10/23 02:38:14;;;;;;;1.10;1.10;;;;;;;13.90;94.77;97056.00;5006906;28;20058;-62
2023/10/23 02:40:50;;;;;;;1.17;1.17;;;;;;;13.78;94.75;97033.28;5006924;28;20054;-62
2023/10/23 02:43:17;;;;;;;1.15;1.15;;;;;;;13.91;94.65;97065.94;5005918;28;20131;-62
2023/10/23 02:45:43;;;;;;;1.05;1.05;;;;;;;13.75;94.30;97039.63;5006613;28;20436;-62
2023/10/23 02:48:10;;;;;;;1.20;1.20;;;;;;;11.00;93.50;96602.91;5007231;28;20488;-62
2023/10/23 02:50:37;;;;;;;1.15;1.15;;;;;;;13.97;93.46;97058.00;5006455;28;20089;-62
2023/10/23 02:53:06;;;;;;;1.23;1.23;;;;;;;13.98;93.54;97059.59;5006818;28;20050;-62
2023/10/23 02:55:33;;;;;;;1.00;1.00;;;;;;;14.00;93.66;97057.22;5006432;28;20500;-62
2023/10/23 02:58:00;;;;;;;1.05;1.05;;;;;;;13.93;93.56;97040.47;5006765;28;20500;-62
2023/10/23 03:00:27;;;;;;;1.20;1.20;;;;;;;14.08;93.48;97056.06;5005067;28;20064;-62
2023/10/23 03:02:54;;;;;;;1.05;1.05;;;;;;;13.65;93.43;97003.00;5006689;28;20045;-62
2023/10/23 03:05:21;;;;;;;1.10;1.10;;;;;;;13.96;94.52;97050.88;5006336;28;20485;-62
2023/10/23 03:07:47;;;;;;;1.10;1.10;;;;;;;14.10;93.53;97062.06;5006466;28;20500;-62
2023/10/23 03:10:14;;;;;;;1.25;1.25;;;;;;;13.67;93.59;96997.03;5004532;28;20096;-62
2023/10/23 03:12:41;;;;;;;1.05;1.05;;;;;;;14.09;93.89;97055.66;5006382;28;20517;-62
2023/10/23 03:15:08;;;;;;;1.20;1.20;;;;;;;14.11;93.80;97047.72;5006721;28;20053;-62
2023/10/23 03:17:35;;;;;;;1.00;1.00;;;;;;;13.67;93.73;96969.22;5006290;28;20059;-62
2023/10/23 03:20:02;;;;;;;1.02;1.02;;;;;;;14.22;93.13;97054.13;5006032;28;20081;-62
2023/10/23 03:22:29;;;;;;;1.17;1.17;;;;;;;13.54;93.77;96954.84;4997861;28;20049;-62
2023/10/23 03:24:57;;;;;;;1.10;1.10;;;;;;;14.22;93.32;97056.09;5006024;28;20132;-62
2023/10/23 03:27:23;;;;;;;1.10;1.10;;;;;;;14.26;93.01;97059.72;5005127;28;20050;-62
2023/10/23 03:29:50;;;;;;;1.10;1.10;;;;;;;14.16;93.61;97052.13;5005421;28;20081;-62
2023/10/23 03:32:17;;;;;;;1.10;1.10;;;;;;;14.01;92.89;97054.06;5005625;28;20056;-62
2023/10/23 03:34:44;;;;;;;1.20;1.20;;;;;;;13.98;93.57;97059.59;5005602;28;20081;-61
2023/10/23 03:37:11;;;;;;;1.08;1.08;;;;;;;13.94;92.21;97056.78;5005880;28;20073;-62
2023/10/23 03:39:38;;;;;;;1.20;1.20;;;;;;;13.80;91.07;97064.31;5006087;28;20054;-62
2023/10/23 03:42:06;;;;;;;1.10;1.10;;;;;;;13.59;90.82;97046.28;5006114;28;20054;-62
2023/10/23 03:44:33;;;;;;;1.10;1.10;;;;;;;13.33;90.53;97007.59;5005502;28;20050;-61
2023/10/23 03:47:00;;;;;;;1.00;1.00;;;;;;;13.47;90.57;97052.19;5004380;28;20062;-61
2023/10/23 03:49:30;;;;;;;1.10;1.10;;;;;;;13.48;91.12;97058.56;5005580;28;20057;-62
2023/10/23 03:51:57;;;;;;;1.10;1.10;;;;;;;13.52;91.12;97057.41;5000601;28;20050;-62
2023/10/23 03:54:24;;;;;;;1.10;1.10;;;;;;;13.40;93.97;97062.50;4985657;28;20054;-62
2023/10/23 03:56:50;;;;;;;1.00;1.00;;;;;;;13.41;95.74;97055.72;5000497;28;20051;-62
2023/10/23 03:59:17;;;;;;;1.10;1.10;;;;;;;13.41;95.83;97045.41;4975797;28;20054;-62
2023/10/23 04:01:44;;;;;;;1.00;1.00;;;;;;;13.50;96.58;97051.41;5000172;28;20057;-62
2023/10/23 04:04:10;;;;;;;1.10;1.10;;;;;;;13.21;96.02;96999.59;4985806;28;20100;-62
2023/10/23 04:06:40;;;;;;;1.10;1.10;;;;;;;13.39;95.65;97038.63;4986029;28;20119;-62
2023/10/23 04:09:07;;;;;;;1.05;1.05;;;;;;;13.49;96.13;97055.41;4985837;28;20059;-62
2023/10/23 04:11:33;;;;;;;1.10;1.10;;;;;;;13.39;96.99;97039.44;4984464;28;20496;-62
2023/10/23 04:14:00;;;;;;;1.10;1.10;;;;;;;13.59;96.75;97054.66;4985246;28;20057;-62
2023/10/23 04:16:27;;;;;;;1.10;1.10;;;;;;;13.52;97.25;97059.38;4985810;28;20046;-62
2023/10/23 04:18:54;;;;;;;1.17;1.17;;;;;;;13.40;96.18;97057.72;4985126;28;20513;-62
2023/10/23 04:21:20;;;;;;;1.00;1.00;;;;;;;13.31;95.24;97065.63;4985915;28;20042;-62
2023/10/23 04:23:47;;;;;;;1.00;1.00;;;;;;;12.64;94.99;96980.91;4984455;28;20505;-62
2023/10/23 04:26:14;;;;;;;1.10;1.10;;;;;;;13.14;93.83;97060.72;4985612;28;20050;-62
2023/10/23 04:28:41;;;;;;;1.00;1.00;;;;;;;13.07;93.57;97071.78;4985442;28;20604;-62
2023/10/23 04:31:08;;;;;;;1.02;1.02;;;;;;;12.70;93.47;97012.69;4985589;28;20481;-62
2023/10/23 04:33:35;;;;;;;1.10;1.10;;;;;;;12.56;93.62;97015.34;5000605;28;20077;-62
2023/10/23 04:36:02;;;;;;;1.20;1.20;;;;;;;12.97;94.53;97122.53;4985520;28;20054;-61
2023/10/23 04:38:31;;;;;;;0.90;0.90;;;;;;;12.89;95.01;97070.84;4985608;28;20129;-62
2023/10/23 04:40:58;;;;;;;1.00;1.00;;;;;;;12.28;95.51;96984.56;4985205;28;20509;-62
2023/10/23 04:43:24;;;;;;;1.05;1.05;;;;;;;12.87;96.02;97072.38;4985095;28;20057;-62
2023/10/23 04:45:55;;;;;;;1.00;1.00;;;;;;;12.85;96.34;97086.66;4984977;28;20058;-62
2023/10/23 04:48:22;;;;;;;1.00;1.00;;;;;;;12.88;96.51;97079.56;4999844;28;20458;-62
2023/10/23 04:50:48;;;;;;;1.02;1.02;;;;;;;12.98;95.28;97079.63;5000478;28;20128;-62
2023/10/23 04:53:15;;;;;;;1.00;1.00;;;;;;;12.93;95.92;97077.22;4988158;28;20061;-62
2023/10/23 04:55:42;;;;;;;1.10;1.10;;;;;;;12.91;95.98;97085.16;4984949;28;20062;-62
2023/10/23 04:58:09;;;;;;;1.13;1.13;;;;;;;12.99;95.73;97084.00;4983597;28;20545;-62
2023/10/23 05:00:37;;;;;;;0.90;0.90;;;;;;;12.69;95.44;97033.34;4997315;28;20316;-62
2023/10/23 05:03:04;;;;;;;1.00;1.00;;;;;;;13.07;94.97;97087.69;5004329;28;20065;-62
2023/10/23 05:05:31;;;;;;;1.10;1.10;;;;;;;13.10;95.15;97096.03;5004208;28;20061;-62
2023/10/23 05:07:59;;;;;;;1.00;1.00;;;;;;;12.78;95.03;97035.78;5004459;28;20089;-62
2023/10/23 05:10:26;;;;;;;1.10;1.10;;;;;;;13.09;95.28;97080.56;5000685;28;20049;-62
2023/10/23 05:12:53;;;;;;;1.10;1.10;;;;;;;13.32;94.66;97097.84;5012771;28;20374;-62
2023/10/23 05:15:20;;;;;;;1.00;1.00;;;;;;;13.42;93.99;97105.44;5002842;28;20428;-61
2023/10/23 05:17:47;;;;;;;0.98;0.98;;;;;;;13.58;92.88;97100.38;5004492;28;20216;-62
2023/10/23 05:20:14;;;;;;;1.10;1.10;;;;;;;13.56;92.60;97111.09;5003341;28;20050;-62
2023/10/23 05:22:41;;;;;;;1.10;1.10;;;;;;;13.63;92.76;97110.34;5003812;28;20056;-61
2023/10/23 05:25:08;;;;;;;1.10;1.10;;;;;;;13.72;92.42;97101.66;5008093;28;20471;-61
2023/10/23 05:27:38;;;;;;;1.02;1.02;;;;;;;13.78;91.62;97111.22;5007785;28;20064;-62
2023/10/23 05:30:06;;;;;;;1.10;1.10;;;;;;;13.58;91.16;97075.31;5007037;28;20062;-62
2023/10/23 05:32:37;;;;;;;1.15;1.15;;;;;;;13.84;91.99;97121.59;5006977;28;20050;-62
2023/10/23 05:35:05;;;;;;;1.00;1.00;;;;;;;13.44;92.07;97041.03;5006884;28;20085;-62
2023/10/23 05:37:35;;;;;;;1.10;1.10;;;;;;;13.75;91.32;97112.00;5005777;28;20104;-62
2023/10/23 05:40:04;;;;;;;1.20;1.20;;;;;;;13.76;91.67;97124.72;5006629;28;20049;-62
2023/10/23 05:42:31;;;;;;;1.20;1.20;;;;;;;13.54;92.58;97102.34;5007408;28;20493;-62
2023/10/23 05:45:00;;;;;;;1.10;1.10;;;;;;;12.71;92.01;96947.59;4989248;28;20061;-67
2023/10/23 05:47:28;;;;;;;1.10;1.10;;;;;;;13.65;91.89;97055.91;5006068;28;20058;-70
2023/10/23 05:49:55;;;;;;;1.27;1.27;;;;;;;14.38;90.88;97140.19;5021957;28;20499;-59
2023/10/23 05:52:21;;;;;;;1.10;1.10;;;;;;;13.48;89.90;96980.66;5006835;28;20064;-66
2023/10/23 05:54:48;;;;;;;1.30;1.30;;;;;;;14.35;88.85;97102.75;5007089;28;20050;-73
2023/10/23 05:57:15;;;;;;;1.20;1.20;;;;;;;13.31;88.39;96937.63;5006480;28;20050;-59
2023/10/23 05:59:41;;;;;;;1.30;1.30;;;;;;;14.70;88.37;97113.22;5006160;28;20072;-68
2023/10/23 06:02:08;;;;;;;1.23;1.23;;;;;;;15.03;87.89;97141.53;4991914;28;20058;-60
2023/10/23 06:04:37;;;;;;;1.30;1.30;;;;;;;15.06;88.17;97128.81;4987748;28;20050;-57
2023/10/23 06:07:05;;;;;;;1.30;1.30;;;;;;;15.30;88.79;97144.75;5006348;28;20058;-72
2023/10/23 06:09:31;;;;;;;1.30;1.30;;;;;;;15.06;89.11;97114.84;5001693;28;20518;-57
2023/10/23 06:11:58;;;;;;;1.25;1.25;;;;;;;14.68;88.04;97026.38;5006167;28;20072;-58
2023/10/23 06:14:25;;;;;;;1.30;1.30;;;;;;;15.52;87.58;97145.56;4996782;28;20089;-66
2023/10/23 06:16:52;;;;;;;1.38;1.38;;;;;;;15.52;87.41;97154.75;4998990;28;20057;-69
2023/10/23 06:19:18;;;;;;;1.30;1.30;;;;;;;15.53;88.25;97150.75;4990300;28;20046;-58
2023/10/23 06:21:45;;;;;;;1.20;1.20;;;;;;;15.44;87.73;97128.03;5000837;28;20151;-66
2023/10/23 06:24:12;;;;;;;1.60;1.60;;;;;;;15.30;85.67;97163.50;4986202;28;20136;-68
2023/10/23 06:26:39;;;;;;;1.30;1.30;;;;;;;14.75;87.95;97143.47;4996046;28;20084;-59
2023/10/23 06:29:09;;;;;;;1.27;1.27;;;;;;;14.77;87.18;97113.22;4999389;28;20046;-66
2023/10/23 06:31:36;;;;;;;1.30;1.30;;;;;;;14.81;89.38;97231.16;5001975;28;20088;-64
2023/10/23 06:34:02;;;;;;;1.30;1.30;;;;;;;14.58;89.04;97088.47;5004766;28;20100;-70
2023/10/23 06:36:31;;;;;;;1.52;1.52;;;;;;;15.18;87.84;97156.31;5004408;28;20080;-72
2023/10/23 06:38:57;;;;;;;1.15;1.15;;;;;;;15.48;87.60;97165.13;5005804;28;20129;-69
2023/10/23 06:41:24;;;;;;;1.50;1.50;;;;;;;15.75;85.35;97146.75;4996704;28;20054;-57
2023/10/23 06:43:51;;;;;;;1.50;1.50;;;;;;;16.18;82.93;97159.44;4986765;28;20146;-58
2023/10/23 06:46:17;;;;;;;1.40;1.40;;;;;;;16.33;82.57;97149.78;4999707;28;20054;-58
2023/10/23 06:48:44;;;;;;;1.50;1.50;;;;;;;15.47;82.89;96951.38;5006598;28;20058;-56
2023/10/23 06:51:11;;;;;;;1.48;1.48;;;;;;;17.04;81.22;97161.44;5001041;28;20056;-67
2023/10/23 06:53:38;;;;;;;1.60;1.60;;;;;;;17.25;79.35;97163.28;5006283;28;20054;-58
2023/10/23 06:56:07;;;;;;;1.60;1.60;;;;;;;17.40;78.96;97162.00;5006223;28;20049;-65
2023/10/23 06:58:34;;;;;;;1.70;1.70;;;;;;;17.61;78.39;97159.03;5006440;28;20335;-63
2023/10/23 07:01:08;;;;;;;1.70;1.70;;;;;;;17.93;77.03;97160.34;4990651;28;20050;-66
2023/10/23 07:03:35;;;;;;;1.80;1.80;;;;;;;17.87;76.74;97158.41;4989110;28;20086;-70
2023/10/23 07:06:06;;;;;;;1.95;1.95;;;;;;;17.40;77.84;97100.38;5005157;28;20050;-59
2023/10/23 07:08:34;;;;;;;2.08;2.08;;;;;;;18.14;75.97;97226.63;5006446;28;20487;-59
2023/10/23 07:11:00;;;;;;;1.77;1.77;;;;;;;18.31;75.23;97155.53;5005125;28;20068;-57
2023/10/23 07:13:27;;;;;;;1.80;1.80;;;;;;;18.65;74.01;97153.53;5005835;28;20053;-59
2023/10/23 07:15:54;;;;;;;1.70;1.70;;;;;;;18.87;72.73;97157.66;5005209;28;20484;-64
2023/10/23 07:18:21;;;;;;;2.03;2.03;;;;;;;17.20;71.94;96870.56;4998714;28;20157;-68
2023/10/23 07:20:56;;;;;;;1.90;1.90;;;;;;;19.27;70.95;97122.16;4994181;28;20424;-70
2023/10/23 07:23:23;;;;;;;2.00;2.00;;;;;;;19.44;69.67;97110.66;5000812;28;20050;-70
2023/10/23 07:26:14;;;;;;;2.20;2.20;;;;;;;19.96;69.10;97146.72;4992113;28;20129;-58
2023/10/23 07:28:41;;;;;;;2.10;2.10;;;;;;;20.21;68.16;97135.81;5002227;28;20137;-70
2023/10/23 07:31:10;;;;;;;2.00;2.00;;;;;;;20.49;66.68;97138.06;5001826;28;20424;-61
2023/10/23 07:33:38;;;;;;;2.03;2.03;;;;;;;20.71;65.32;97134.38;4988411;28;20625;-67
2023/10/23 07:36:10;;;;;;;1.75;1.75;;;;;;;20.78;65.58;97158.78;4996188;28;20053;-72
2023/10/23 07:38:42;;;;;;;2.08;2.08;;;;;;;20.19;64.84;97037.00;4998752;28;20050;-65
2023/10/23 07:41:12;;;;;;;2.45;2.35;;;;;;;20.97;64.81;97124.19;4997521;28;20421;-67
2023/10/23 07:43:39;;;;;;;2.22;2.22;;;;;;;19.57;63.78;96876.81;5002903;28;20081;-65
2023/10/23 07:46:08;;;;;;;2.17;2.17;;;;;;;21.26;63.94;97110.25;4990828;28;20050;-66
2023/10/23 07:48:44;;;;;;;2.45;2.35;;;;;;;21.53;62.84;97125.66;4986061;28;20046;-71
2023/10/23 07:51:12;;;;;;;2.63;2.53;;;;;;;21.69;61.47;97122.84;4989722;28;20120;-55
2023/10/23 07:53:39;;;;;;;2.38;2.33;;;;;;;21.66;60.84;97101.19;5003438;28;20597;-70
2023/10/23 07:56:05;;;;;;;2.22;2.22;;;;;;;22.01;59.95;97125.69;5004921;28;20064;-68
2023/10/23 07:58:33;;;;;;;2.22;2.22;;;;;;;22.16;59.35;97112.75;4996852;28;20228;-71
2023/10/23 08:01:04;;;;;;;2.60;2.50;;;;;;;22.40;59.00;97116.91;4994742;28;20073;-56
2023/10/23 08:03:33;;;;;;;2.30;2.30;;;;;;;22.53;57.48;97107.72;5005310;28;20069;-57
2023/10/23 08:06:03;;;;;;;2.38;2.35;;;;;;;22.65;56.48;97107.78;5005243;28;20046;-64
2023/10/23 08:08:35;;;;;;;2.60;2.50;;;;;;;22.88;55.95;97106.69;5003485;28;20054;-61
2023/10/23 08:11:06;;;;;;;2.88;2.78;;;;;;;23.14;53.84;97094.16;5004433;28;20061;-59
2023/10/23 08:13:34;;;;;;;2.70;2.60;;;;;;;22.75;52.33;97018.28;5003766;28;20133;-56
2023/10/23 08:16:03;;;;;;;2.70;2.60;;;;;;;22.80;52.01;97048.81;5004960;28;20050;-63
2023/10/23 08:18:30;;;;;;;2.63;2.53;;;;;;;23.29;52.83;97092.50;5000824;28;20053;-70
2023/10/23 08:21:15;;;;;;;2.90;2.80;;;;;;;23.54;50.86;97104.59;4988644;28;20085;-57
2023/10/23 08:23:44;;;;;;;2.95;2.85;;;;;;;23.90;50.11;97087.19;5002878;28;20112;-57
2023/10/23 08:26:11;;;;;;;2.95;2.85;;;;;;;23.84;49.33;97038.88;5001688;28;20042;-69
2023/10/23 08:28:39;;;;;;;2.97;2.88;;;;;;;24.25;50.67;97080.31;5002006;28;20500;-58
2023/10/23 08:31:08;;;;;;;3.28;3.17;;;;;;;24.56;49.24;97078.34;4989997;28;20061;-56
2023/10/23 08:33:50;;;;;;;3.08;2.97;;;;;;;24.57;49.01;97048.75;4992757;28;20104;-72
2023/10/23 08:36:17;;;;;;;3.00;2.90;;;;;;;24.58;47.83;97075.81;4998184;28;20054;-56
2023/10/23 08:38:44;;;;;;;3.50;3.40;;;;;;;24.37;47.25;97073.00;4996043;28;20054;-59
2023/10/23 08:41:12;;;;;;;3.30;3.20;;;;;;;23.95;47.75;97049.03;4996036;28;20057;-65
2023/10/23 08:43:40;;;;;;;3.00;2.90;;;;;;;24.21;47.63;97023.03;4984860;28;20081;-55
2023/10/23 08:46:08;;;;;;;3.05;2.95;;;;;;;22.51;46.25;96726.22;4996023;28;20492;-58
2023/10/23 08:48:38;;;;;;;3.03;2.92;;;;;;;24.64;46.13;97065.50;5004370;28;20050;-62
2023/10/23 08:51:07;;;;;;;3.17;3.08;;;;;;;24.94;46.00;97067.56;4998191;28;20169;-55
2023/10/23 08:53:48;;;;;;;3.22;3.13;;;;;;;24.77;44.43;96992.53;4993333;28;20050;-69
2023/10/23 08:56:37;;;;;;;3.63;3.53;;;;;;;25.25;43.70;97045.69;4993391;28;20045;-57
2023/10/23 08:59:05;;;;;;;3.13;3.03;;;;;;;25.03;44.96;97061.97;5000893;28;20065;-61
2023/10/23 09:01:36;;;;;;;3.38;3.28;;;;;;;25.34;44.85;97047.00;4994793;28;20054;-56
2023/10/23 09:04:05;;;;;;;3.88;3.78;;;;;;;25.82;44.14;97060.34;4982355;28;20062;-65
2023/10/23 09:06:35;;;;;;;3.35;3.25;;;;;;;25.86;43.79;97043.97;4984908;28;20069;-64
2023/10/23 09:09:05;;;;;;;3.53;3.42;;;;;;;25.74;44.01;97047.72;4984178;28;20046;-59
2023/10/23 09:11:43;;;;;;;3.90;3.80;;;;;;;26.15;44.22;97056.47;4984157;28;20136;-70
2023/10/23 09:14:24;;;;;;;3.97;3.88;;;;;;;26.35;43.46;97044.63;4989010;28;20133;-68
2023/10/23 09:16:53;;;;;;;3.50;3.40;;;;;;;26.62;42.74;97036.84;4984509;28;20101;-61
2023/10/23 09:19:32;;;;;;;3.85;3.75;;;;;;;26.87;42.50;97043.47;4996051;28;20089;-58
2023/10/23 09:22:00;;;;;;;4.13;4.03;;;;;;;25.57;42.55;96805.25;4994113;28;20545;-68
2023/10/23 09:24:26;;;;;;;3.88;3.78;;;;;;;27.01;41.96;97037.09;5002923;28;20508;-56
2023/10/23 09:26:53;;;;;;;4.03;3.92;;;;;;;27.27;41.78;97022.00;4998167;28;20077;-56
2023/10/23 09:29:27;;;;;;;4.20;4.10;;;;;;;27.13;40.88;96982.03;5003638;28;20064;-57
2023/10/23 09:31:57;;;;;;;4.28;4.18;;;;;;;27.14;41.84;96990.09;5003560;28;20128;-57
2023/10/23 09:34:25;;;;;;;3.75;3.65;;;;;;;27.42;41.11;96985.91;5003476;28;20061;-65
2023/10/23 09:36:52;;;;;;;3.97;3.88;;;;;;;27.50;40.93;96995.66;5003026;28;20046;-64
2023/10/23 09:39:23;;;;;;;4.20;4.10;;;;;;;27.92;40.44;97002.03;5003939;28;20518;-56
2023/10/23 09:41:52;;;;;;;4.50;4.40;;;;;;;28.01;40.29;97001.94;5018080;28;20528;-58
2023/10/23 09:44:24;;;;;;;4.07;3.97;;;;;;;28.23;39.21;97001.63;4985789;28;20149;-65
2023/10/23 09:46:53;;;;;;;4.45;4.35;;;;;;;28.20;38.45;96996.09;4999850;28;20085;-65
2023/10/23 09:49:20;;;;;;;3.63;3.53;;;;;;;26.46;39.69;96843.22;5003670;28;20553;-66
2023/10/23 09:51:48;;;;;;;3.90;3.80;;;;;;;27.47;39.33;96928.31;4999763;28;20046;-67
2023/10/23 09:54:17;;;;;;;4.30;4.20;;;;;;;28.24;39.40;96985.28;4985076;28;20100;-70
2023/10/23 09:56:53;;;;;;;4.00;3.90;;;;;;;28.23;37.95;96992.28;4998999;28;20481;-57
2023/10/23 09:59:40;;;;;;;3.72;3.63;;;;;;;27.56;38.62;96987.22;5001340;28;20065;-58
2023/10/23 10:02:09;;;;;;;3.90;3.80;;;;;;;27.89;38.72;96976.56;4985479;28;20441;-68
2023/10/23 10:04:48;;;;;;;4.00;3.90;;;;;;;28.09;38.95;96968.97;4992396;28;20054;-57
2023/10/23 10:07:27;;;;;;;4.00;3.90;;;;;;;28.22;38.34;96936.56;4982524;28;20054;-59
2023/10/23 10:09:55;;;;;;;3.92;3.83;;;;;;;28.75;37.73;96962.94;4987624;28;20069;-60
2023/10/23 10:12:24;;;;;;;4.10;4.00;;;;;;;29.14;37.03;96958.66;4994586;28;20061;-62
2023/10/23 10:14:54;;;;;;;4.30;4.20;;;;;;;29.22;36.71;96939.84;4987518;28;20049;-61
2023/10/23 10:17:22;;;;;;;4.25;4.15;;;;;;;29.36;35.79;96916.19;5005547;28;20064;-70
2023/10/23 10:19:49;;;;;;;4.40;4.30;;;;;;;29.76;35.71;96949.72;4991155;28;20195;-57
2023/10/23 10:22:36;;;;;;;4.32;4.22;;;;;;;29.97;35.68;96937.75;4987788;28;20054;-68
2023/10/23 10:25:05;;;;;;;4.38;4.28;;;;;;;29.27;35.66;96910.63;4992807;28;20090;-66
2023/10/23 10:27:32;;;;;;;4.35;4.25;;;;;;;29.62;35.94;96937.06;4993378;28;20100;-67
2023/10/23 10:30:06;;;;;;;4.10;4.00;;;;;;;29.68;36.09;96937.94;5001255;28;20046;-59
2023/10/23 10:32:33;;;;;;;4.10;4.00;;;;;;;29.85;35.40;96941.78;4998809;28;20058;-69
2023/10/23 10:35:29;;;;;;;4.60;4.50;;;;;;;30.03;35.83;96930.06;5003424;28;20054;-66
2023/10/23 10:38:12;;;;;;;4.50;4.40;;;;;;;29.80;35.63;96876.78;4987271;28;20089;-68
2023/10/23 10:40:59;;;;;;;4.15;4.05;;;;;;;30.04;35.07;96925.09;4989502;28;20066;-60
2023/10/23 10:43:30;;;;;;;4.60;4.50;;;;;;;29.84;35.54;96917.38;4985320;28;20615;-58
2023/10/23 10:45:56;;;;;;;4.78;4.68;;;;;;;29.49;35.99;96897.44;4997005;28;20054;-67
2023/10/23 10:48:25;;;;;;;4.47;4.38;;;;;;;29.82;35.66;96914.22;5006672;28;20351;-57
2023/10/23 10:50:54;;;;;;;4.30;4.20;;;;;;;29.69;35.41;96893.81;4992399;28;20046;-63
2023/10/23 10:53:24;;;;;;;4.72;4.63;;;;;;;29.68;35.54;96891.44;4985728;28;20054;-58
2023/10/23 10:55:50;;;;;;;4.85;4.75;;;;;;;29.90;35.55;96909.63;4985943;28;20058;-60
2023/10/23 10:58:18;;;;;;;4.28;4.18;;;;;;;30.15;35.29;96914.59;4988754;28;20053;-65
2023/10/23 11:00:45;;;;;;;4.50;4.40;;;;;;;29.76;36.03;96909.72;4996445;28;20053;-69
2023/10/23 11:03:12;;;;;;;4.63;4.53;;;;;;;29.63;35.85;96912.91;5003533;28;20169;-67
2023/10/23 11:05:44;;;;;;;4.30;4.20;;;;;;;29.40;36.18;96899.66;4991923;28;20054;-61
2023/10/23 11:08:11;;;;;;;4.55;4.45;;;;;;;29.03;36.48;96898.56;4996225;28;20518;-58
2023/10/23 11:10:38;;;;;;;4.82;4.72;;;;;;;28.50;36.88;96881.63;4992814;28;20058;-59
2023/10/23 11:13:04;;;;;;;4.05;3.95;;;;;;;28.29;36.89;96848.63;5002734;28;20600;-67
2023/10/23 11:15:31;;;;;;;4.25;4.15;;;;;;;28.18;37.57;96891.94;4996749;28;20045;-59
2023/10/23 11:17:58;;;;;;;4.20;4.10;;;;;;;28.24;37.90;96894.91;4986734;28;20054;-60
2023/10/23 11:20:30;;;;;;;3.90;3.80;;;;;;;28.30;37.09;96892.13;4993132;28;20054;-69
2023/10/23 11:22:58;;;;;;;4.35;4.25;;;;;;;27.53;38.01;96784.06;4993058;28;20355;-58
2023/10/23 11:27:21;;;;;;;3.80;3.70;;;;;;;27.87;38.09;96894.44;5072114;28;20414;-68
2023/10/23 11:29:48;;;;;;;4.05;3.95;;;;;;;27.37;39.04;96895.50;5083878;28;20047;-61
2023/10/23 11:32:17;;;;;;;4.18;4.07;;;;;;;26.99;38.98;96892.53;5062646;28;20044;-70
2023/10/23 11:34:47;;;;;;;3.55;3.45;;;;;;;27.30;39.64;96906.47;5081084;28;20326;-67
2023/10/23 11:37:14;;;;;;;3.53;3.42;;;;;;;27.28;39.40;96894.78;5078017;28;20534;-65
2023/10/23 11:39:44;;;;;;;3.95;3.85;;;;;;;27.48;39.18;96890.03;5078751;28;20098;-56
2023/10/23 11:42:11;;;;;;;4.13;4.03;;;;;;;27.75;39.30;96908.94;5080178;28;20067;-65